sensor_id;sensor_type;location;lat;lon;timestamp;temperature;humidity
12839;DHT22;6486;51.034;5.262;2022-11-20T00:00:53;5.50;77.50
12839;DHT22;6486;51.034;5.262;2022-11-20T00:03:19;5.50;77.60
12839;DHT22;6486;51.034;5.262;2022-11-20T00:05:44;5.50;77.60
12839;DHT22;6486;51.034;5.262;2022-11-20T00:08:10;5.40;77.50
12839;DHT22;6486;51.034;5.262;2022-11-20T00:10:37;5.40;77.50
12839;DHT22;6486;51.034;5.262;2022-11-20T00:13:03;5.40;77.60
12839;DHT22;6486;51.034;5.262;2022-11-20T00:15:29;5.40;77.60
12839;DHT22;6486;51.034;5.262;2022-11-20T00:17:55;5.30;77.40
12839;DHT22;6486;51.034;5.262;2022-11-20T00:20:20;5.30;77.30
12839;DHT22;6486;51.034;5.262;2022-11-20T00:22:46;5.40;77.30
12839;DHT22;6486;51.034;5.262;2022-11-20T00:25:12;5.30;77.10
12839;DHT22;6486;51.034;5.262;2022-11-20T00:27:37;5.30;77.20
12839;DHT22;6486;51.034;5.262;2022-11-20T00:30:04;5.30;77.30
12839;DHT22;6486;51.034;5.262;2022-11-20T00:32:30;5.30;77.20
12839;DHT22;6486;51.034;5.262;2022-11-20T00:34:55;5.30;77.10
12839;DHT22;6486;51.034;5.262;2022-11-20T00:37:21;5.30;77.10
12839;DHT22;6486;51.034;5.262;2022-11-20T00:39:46;5.30;77.00
12839;DHT22;6486;51.034;5.262;2022-11-20T00:42:12;5.20;77.00
12839;DHT22;6486;51.034;5.262;2022-11-20T00:44:38;5.20;77.00
12839;DHT22;6486;51.034;5.262;2022-11-20T00:47:04;5.20;77.00
12839;DHT22;6486;51.034;5.262;2022-11-20T00:49:29;5.20;77.00
12839;DHT22;6486;51.034;5.262;2022-11-20T00:51:55;5.10;76.90
12839;DHT22;6486;51.034;5.262;2022-11-20T00:54:20;5.10;76.90
12839;DHT22;6486;51.034;5.262;2022-11-20T00:56:46;5.10;77.00
12839;DHT22;6486;51.034;5.262;2022-11-20T00:59:12;5.10;77.00
12839;DHT22;6486;51.034;5.262;2022-11-20T01:01:38;5.10;77.00
12839;DHT22;6486;51.034;5.262;2022-11-20T01:04:04;5.10;77.00
12839;DHT22;6486;51.034;5.262;2022-11-20T01:08:59;5.10;77.60
12839;DHT22;6486;51.034;5.262;2022-11-20T01:11:36;5.10;76.90
12839;DHT22;6486;51.034;5.262;2022-11-20T01:14:03;5.10;76.90
12839;DHT22;6486;51.034;5.262;2022-11-20T01:16:32;5.10;76.90
12839;DHT22;6486;51.034;5.262;2022-11-20T01:19:00;5.10;76.90
12839;DHT22;6486;51.034;5.262;2022-11-20T01:21:29;5.10;76.90
12839;DHT22;6486;51.034;5.262;2022-11-20T01:23:55;5.20;77.00
12839;DHT22;6486;51.034;5.262;2022-11-20T01:26:24;5.20;77.00
12839;DHT22;6486;51.034;5.262;2022-11-20T01:28:50;5.10;76.80
12839;DHT22;6486;51.034;5.262;2022-11-20T01:31:17;5.10;76.80
12839;DHT22;6486;51.034;5.262;2022-11-20T01:33:46;5.10;76.70
12839;DHT22;6486;51.034;5.262;2022-11-20T01:36:12;5.10;76.70
12839;DHT22;6486;51.034;5.262;2022-11-20T01:38:38;5.10;76.70
12839;DHT22;6486;51.034;5.262;2022-11-20T01:41:05;5.10;76.70
12839;DHT22;6486;51.034;5.262;2022-11-20T01:43:31;5.10;76.60
12839;DHT22;6486;51.034;5.262;2022-11-20T01:46:04;5.10;76.70
12839;DHT22;6486;51.034;5.262;2022-11-20T01:48:36;5.20;76.80
12839;DHT22;6486;51.034;5.262;2022-11-20T01:51:07;5.20;76.80
12839;DHT22;6486;51.034;5.262;2022-11-20T01:53:38;5.20;76.80
12839;DHT22;6486;51.034;5.262;2022-11-20T01:56:08;5.20;76.80
12839;DHT22;6486;51.034;5.262;2022-11-20T01:58:40;5.20;76.80
12839;DHT22;6486;51.034;5.262;2022-11-20T02:01:07;5.20;76.80
12839;DHT22;6486;51.034;5.262;2022-11-20T02:03:33;5.20;77.40
12839;DHT22;6486;51.034;5.262;2022-11-20T02:08:28;5.30;76.80
12839;DHT22;6486;51.034;5.262;2022-11-20T02:10:54;5.20;76.60
12839;DHT22;6486;51.034;5.262;2022-11-20T02:13:19;5.20;76.60
12839;DHT22;6486;51.034;5.262;2022-11-20T02:16:04;5.30;76.60
12839;DHT22;6486;51.034;5.262;2022-11-20T02:18:31;5.20;76.60
12839;DHT22;6486;51.034;5.262;2022-11-20T02:21:07;5.20;76.70
12839;DHT22;6486;51.034;5.262;2022-11-20T02:26:29;5.20;76.60
12839;DHT22;6486;51.034;5.262;2022-11-20T02:28:55;5.20;76.60
12839;DHT22;6486;51.034;5.262;2022-11-20T02:31:22;5.20;76.70
12839;DHT22;6486;51.034;5.262;2022-11-20T02:33:47;5.20;76.80
12839;DHT22;6486;51.034;5.262;2022-11-20T02:36:15;5.10;76.70
12839;DHT22;6486;51.034;5.262;2022-11-20T02:38:42;5.10;76.70
12839;DHT22;6486;51.034;5.262;2022-11-20T02:41:08;5.10;76.70
12839;DHT22;6486;51.034;5.262;2022-11-20T02:43:34;5.10;76.60
12839;DHT22;6486;51.034;5.262;2022-11-20T02:45:59;5.10;76.60
12839;DHT22;6486;51.034;5.262;2022-11-20T02:48:25;5.10;76.80
12839;DHT22;6486;51.034;5.262;2022-11-20T02:50:51;5.10;76.70
12839;DHT22;6486;51.034;5.262;2022-11-20T02:53:16;5.10;76.70
12839;DHT22;6486;51.034;5.262;2022-11-20T02:55:42;5.10;76.80
12839;DHT22;6486;51.034;5.262;2022-11-20T02:58:07;5.10;76.80
12839;DHT22;6486;51.034;5.262;2022-11-20T03:00:33;5.10;76.90
12839;DHT22;6486;51.034;5.262;2022-11-20T03:02:59;5.10;76.80
12839;DHT22;6486;51.034;5.262;2022-11-20T03:05:24;5.10;76.90
12839;DHT22;6486;51.034;5.262;2022-11-20T03:07:50;5.10;76.80
12839;DHT22;6486;51.034;5.262;2022-11-20T03:10:16;5.10;76.80
12839;DHT22;6486;51.034;5.262;2022-11-20T03:12:41;5.10;76.90
12839;DHT22;6486;51.034;5.262;2022-11-20T03:15:07;5.10;76.90
12839;DHT22;6486;51.034;5.262;2022-11-20T03:17:33;5.10;77.00
12839;DHT22;6486;51.034;5.262;2022-11-20T03:19:59;5.10;77.10
12839;DHT22;6486;51.034;5.262;2022-11-20T03:22:24;5.20;77.20
12839;DHT22;6486;51.034;5.262;2022-11-20T03:24:50;5.20;77.10
12839;DHT22;6486;51.034;5.262;2022-11-20T03:27:16;5.20;77.00
12839;DHT22;6486;51.034;5.262;2022-11-20T03:29:42;5.20;76.90
12839;DHT22;6486;51.034;5.262;2022-11-20T03:32:07;5.10;76.80
12839;DHT22;6486;51.034;5.262;2022-11-20T03:34:33;5.10;76.90
12839;DHT22;6486;51.034;5.262;2022-11-20T03:36:59;5.10;76.90
12839;DHT22;6486;51.034;5.262;2022-11-20T03:39:24;5.10;77.00
12839;DHT22;6486;51.034;5.262;2022-11-20T03:41:50;5.10;76.90
12839;DHT22;6486;51.034;5.262;2022-11-20T03:44:15;5.10;76.90
12839;DHT22;6486;51.034;5.262;2022-11-20T03:46:41;5.10;77.00
12839;DHT22;6486;51.034;5.262;2022-11-20T03:49:07;5.10;77.00
12839;DHT22;6486;51.034;5.262;2022-11-20T03:51:35;5.10;77.00
12839;DHT22;6486;51.034;5.262;2022-11-20T03:54:05;5.10;77.00
12839;DHT22;6486;51.034;5.262;2022-11-20T03:56:33;5.10;77.00
12839;DHT22;6486;51.034;5.262;2022-11-20T03:58:59;5.10;76.90
12839;DHT22;6486;51.034;5.262;2022-11-20T04:01:27;5.10;76.90
12839;DHT22;6486;51.034;5.262;2022-11-20T04:03:54;5.10;76.80
12839;DHT22;6486;51.034;5.262;2022-11-20T04:06:26;5.10;76.90
12839;DHT22;6486;51.034;5.262;2022-11-20T04:08:54;5.10;77.10
12839;DHT22;6486;51.034;5.262;2022-11-20T04:11:22;5.00;77.00
12839;DHT22;6486;51.034;5.262;2022-11-20T04:13:53;5.00;77.10
12839;DHT22;6486;51.034;5.262;2022-11-20T04:16:20;5.00;77.10
12839;DHT22;6486;51.034;5.262;2022-11-20T04:18:46;5.00;77.30
12839;DHT22;6486;51.034;5.262;2022-11-20T04:21:12;5.00;77.30
12839;DHT22;6486;51.034;5.262;2022-11-20T04:23:38;5.00;77.30
12839;DHT22;6486;51.034;5.262;2022-11-20T04:26:09;5.00;77.10
12839;DHT22;6486;51.034;5.262;2022-11-20T04:28:35;5.00;77.10
12839;DHT22;6486;51.034;5.262;2022-11-20T04:31:17;5.00;77.20
12839;DHT22;6486;51.034;5.262;2022-11-20T04:33:42;5.00;77.20
12839;DHT22;6486;51.034;5.262;2022-11-20T04:36:19;5.00;77.20
12839;DHT22;6486;51.034;5.262;2022-11-20T04:38:46;5.10;77.30
12839;DHT22;6486;51.034;5.262;2022-11-20T04:41:16;5.10;77.30
12839;DHT22;6486;51.034;5.262;2022-11-20T04:43:46;5.10;77.30
12839;DHT22;6486;51.034;5.262;2022-11-20T04:46:14;5.10;77.30
12839;DHT22;6486;51.034;5.262;2022-11-20T04:48:39;5.10;77.30
12839;DHT22;6486;51.034;5.262;2022-11-20T04:51:05;5.20;77.30
12839;DHT22;6486;51.034;5.262;2022-11-20T04:53:31;5.10;77.20
12839;DHT22;6486;51.034;5.262;2022-11-20T04:56:04;5.10;77.20
12839;DHT22;6486;51.034;5.262;2022-11-20T04:58:30;5.10;77.20
12839;DHT22;6486;51.034;5.262;2022-11-20T05:01:20;5.00;77.20
12839;DHT22;6486;51.034;5.262;2022-11-20T05:03:46;5.00;77.20
12839;DHT22;6486;51.034;5.262;2022-11-20T05:06:13;5.00;77.30
12839;DHT22;6486;51.034;5.262;2022-11-20T05:08:39;5.00;77.30
12839;DHT22;6486;51.034;5.262;2022-11-20T05:11:08;5.00;77.30
12839;DHT22;6486;51.034;5.262;2022-11-20T05:13:34;5.00;77.30
12839;DHT22;6486;51.034;5.262;2022-11-20T05:16:05;5.00;77.10
12839;DHT22;6486;51.034;5.262;2022-11-20T05:18:31;5.00;77.30
12839;DHT22;6486;51.034;5.262;2022-11-20T05:20:58;5.00;77.20
12839;DHT22;6486;51.034;5.262;2022-11-20T05:23:24;5.00;77.20
12839;DHT22;6486;51.034;5.262;2022-11-20T05:25:54;5.00;77.90
12839;DHT22;6486;51.034;5.262;2022-11-20T05:28:21;5.00;77.30
12839;DHT22;6486;51.034;5.262;2022-11-20T05:30:47;5.00;77.20
12839;DHT22;6486;51.034;5.262;2022-11-20T05:33:12;5.00;77.20
12839;DHT22;6486;51.034;5.262;2022-11-20T05:35:38;5.00;77.20
12839;DHT22;6486;51.034;5.262;2022-11-20T05:38:04;5.00;77.30
12839;DHT22;6486;51.034;5.262;2022-11-20T05:40:29;5.00;77.30
12839;DHT22;6486;51.034;5.262;2022-11-20T05:42:55;5.00;77.30
12839;DHT22;6486;51.034;5.262;2022-11-20T05:45:21;5.00;77.30
12839;DHT22;6486;51.034;5.262;2022-11-20T05:47:46;5.00;77.30
12839;DHT22;6486;51.034;5.262;2022-11-20T05:50:13;5.00;77.30
12839;DHT22;6486;51.034;5.262;2022-11-20T05:52:38;5.00;77.20
12839;DHT22;6486;51.034;5.262;2022-11-20T05:55:04;5.00;77.30
12839;DHT22;6486;51.034;5.262;2022-11-20T05:57:31;5.00;77.30
12839;DHT22;6486;51.034;5.262;2022-11-20T05:59:57;5.00;77.30
12839;DHT22;6486;51.034;5.262;2022-11-20T06:02:22;5.00;77.40
12839;DHT22;6486;51.034;5.262;2022-11-20T06:04:48;5.00;77.40
12839;DHT22;6486;51.034;5.262;2022-11-20T06:07:14;4.90;77.40
12839;DHT22;6486;51.034;5.262;2022-11-20T06:09:39;4.90;77.50
12839;DHT22;6486;51.034;5.262;2022-11-20T06:12:05;4.90;77.50
12839;DHT22;6486;51.034;5.262;2022-11-20T06:14:31;4.90;77.60
12839;DHT22;6486;51.034;5.262;2022-11-20T06:16:56;4.90;77.70
12839;DHT22;6486;51.034;5.262;2022-11-20T06:19:22;4.90;77.90
12839;DHT22;6486;51.034;5.262;2022-11-20T06:21:48;4.90;78.00
12839;DHT22;6486;51.034;5.262;2022-11-20T06:24:17;4.90;78.00
12839;DHT22;6486;51.034;5.262;2022-11-20T06:26:43;5.00;77.90
12839;DHT22;6486;51.034;5.262;2022-11-20T06:29:09;5.00;77.80
12839;DHT22;6486;51.034;5.262;2022-11-20T06:31:35;5.00;77.80
12839;DHT22;6486;51.034;5.262;2022-11-20T06:34:04;5.10;77.80
12839;DHT22;6486;51.034;5.262;2022-11-20T06:36:30;5.00;77.70
12839;DHT22;6486;51.034;5.262;2022-11-20T06:38:56;5.00;77.60
12839;DHT22;6486;51.034;5.262;2022-11-20T06:41:22;5.10;77.70
12839;DHT22;6486;51.034;5.262;2022-11-20T06:43:48;5.10;77.70
12839;DHT22;6486;51.034;5.262;2022-11-20T06:46:16;5.10;77.80
12839;DHT22;6486;51.034;5.262;2022-11-20T06:48:45;5.10;77.80
12839;DHT22;6486;51.034;5.262;2022-11-20T06:51:12;5.10;77.70
12839;DHT22;6486;51.034;5.262;2022-11-20T06:53:38;5.20;77.80
12839;DHT22;6486;51.034;5.262;2022-11-20T06:56:05;5.20;77.80
12839;DHT22;6486;51.034;5.262;2022-11-20T06:58:32;5.20;77.70
12839;DHT22;6486;51.034;5.262;2022-11-20T07:00:59;5.20;77.70
12839;DHT22;6486;51.034;5.262;2022-11-20T07:03:25;5.30;77.80
12839;DHT22;6486;51.034;5.262;2022-11-20T07:05:50;5.30;77.80
12839;DHT22;6486;51.034;5.262;2022-11-20T07:08:16;5.30;77.90
12839;DHT22;6486;51.034;5.262;2022-11-20T07:10:42;5.30;77.90
12839;DHT22;6486;51.034;5.262;2022-11-20T07:13:07;5.20;77.90
12839;DHT22;6486;51.034;5.262;2022-11-20T07:15:33;5.20;78.10
12839;DHT22;6486;51.034;5.262;2022-11-20T07:17:59;5.20;78.10
12839;DHT22;6486;51.034;5.262;2022-11-20T07:20:25;5.20;78.10
12839;DHT22;6486;51.034;5.262;2022-11-20T07:22:55;5.30;78.20
12839;DHT22;6486;51.034;5.262;2022-11-20T07:25:22;5.30;78.20
12839;DHT22;6486;51.034;5.262;2022-11-20T07:27:47;5.30;78.10
12839;DHT22;6486;51.034;5.262;2022-11-20T07:30:14;5.30;78.00
12839;DHT22;6486;51.034;5.262;2022-11-20T07:32:40;5.40;78.20
12839;DHT22;6486;51.034;5.262;2022-11-20T07:35:06;5.40;78.20
12839;DHT22;6486;51.034;5.262;2022-11-20T07:37:34;5.40;78.10
12839;DHT22;6486;51.034;5.262;2022-11-20T07:40:00;5.40;78.10
12839;DHT22;6486;51.034;5.262;2022-11-20T07:42:25;5.50;78.20
12839;DHT22;6486;51.034;5.262;2022-11-20T07:44:51;5.50;78.30
12839;DHT22;6486;51.034;5.262;2022-11-20T07:47:17;5.50;78.20
12839;DHT22;6486;51.034;5.262;2022-11-20T07:49:42;5.50;78.30
12839;DHT22;6486;51.034;5.262;2022-11-20T07:52:08;5.60;78.30
12839;DHT22;6486;51.034;5.262;2022-11-20T07:54:33;5.50;78.20
12839;DHT22;6486;51.034;5.262;2022-11-20T07:56:59;5.60;78.30
12839;DHT22;6486;51.034;5.262;2022-11-20T07:59:25;5.60;78.20
12839;DHT22;6486;51.034;5.262;2022-11-20T08:01:50;5.60;78.30
12839;DHT22;6486;51.034;5.262;2022-11-20T08:04:16;5.60;78.30
12839;DHT22;6486;51.034;5.262;2022-11-20T08:06:42;5.70;78.40
12839;DHT22;6486;51.034;5.262;2022-11-20T08:09:07;5.70;78.20
12839;DHT22;6486;51.034;5.262;2022-11-20T08:11:33;5.70;78.30
12839;DHT22;6486;51.034;5.262;2022-11-20T08:14:17;5.70;78.20
12839;DHT22;6486;51.034;5.262;2022-11-20T08:16:45;5.70;78.40
12839;DHT22;6486;51.034;5.262;2022-11-20T08:19:12;5.70;78.50
12839;DHT22;6486;51.034;5.262;2022-11-20T08:21:38;5.70;78.60
12839;DHT22;6486;51.034;5.262;2022-11-20T08:24:04;5.70;78.60
12839;DHT22;6486;51.034;5.262;2022-11-20T08:26:30;5.80;78.60
12839;DHT22;6486;51.034;5.262;2022-11-20T08:28:57;5.80;78.70
12839;DHT22;6486;51.034;5.262;2022-11-20T08:31:23;5.80;78.70
12839;DHT22;6486;51.034;5.262;2022-11-20T08:33:50;5.80;78.70
12839;DHT22;6486;51.034;5.262;2022-11-20T08:36:16;5.80;78.70
12839;DHT22;6486;51.034;5.262;2022-11-20T08:38:42;5.90;78.70
12839;DHT22;6486;51.034;5.262;2022-11-20T08:41:07;5.90;79.40
12839;DHT22;6486;51.034;5.262;2022-11-20T08:46:19;6.00;78.70
12839;DHT22;6486;51.034;5.262;2022-11-20T08:48:45;6.00;78.70
12839;DHT22;6486;51.034;5.262;2022-11-20T08:51:11;6.10;78.80
12839;DHT22;6486;51.034;5.262;2022-11-20T08:53:38;6.10;78.70
12839;DHT22;6486;51.034;5.262;2022-11-20T08:56:04;6.10;78.70
12839;DHT22;6486;51.034;5.262;2022-11-20T08:58:30;6.10;78.70
12839;DHT22;6486;51.034;5.262;2022-11-20T09:00:55;6.10;78.80
12839;DHT22;6486;51.034;5.262;2022-11-20T09:03:22;6.10;78.80
12839;DHT22;6486;51.034;5.262;2022-11-20T09:05:47;6.10;78.70
12839;DHT22;6486;51.034;5.262;2022-11-20T09:08:13;6.20;78.80
12839;DHT22;6486;51.034;5.262;2022-11-20T09:10:39;6.20;78.80
12839;DHT22;6486;51.034;5.262;2022-11-20T09:13:07;6.20;78.80
12839;DHT22;6486;51.034;5.262;2022-11-20T09:15:33;6.30;78.90
12839;DHT22;6486;51.034;5.262;2022-11-20T09:18:03;6.30;78.90
12839;DHT22;6486;51.034;5.262;2022-11-20T09:20:30;6.30;78.90
12839;DHT22;6486;51.034;5.262;2022-11-20T09:22:57;6.40;78.90
12839;DHT22;6486;51.034;5.262;2022-11-20T09:25:23;6.40;78.90
12839;DHT22;6486;51.034;5.262;2022-11-20T09:27:58;6.50;79.00
12839;DHT22;6486;51.034;5.262;2022-11-20T09:30:24;6.50;79.00
12839;DHT22;6486;51.034;5.262;2022-11-20T09:32:49;6.50;79.00
12839;DHT22;6486;51.034;5.262;2022-11-20T09:35:15;6.60;79.10
12839;DHT22;6486;51.034;5.262;2022-11-20T09:37:43;6.60;79.00
12839;DHT22;6486;51.034;5.262;2022-11-20T09:40:27;6.70;79.00
12839;DHT22;6486;51.034;5.262;2022-11-20T09:43:21;6.70;79.00
12839;DHT22;6486;51.034;5.262;2022-11-20T09:56:48;6.80;79.10
12839;DHT22;6486;51.034;5.262;2022-11-20T10:02:00;6.80;79.10
12839;DHT22;6486;51.034;5.262;2022-11-20T10:04:29;6.80;79.20
12839;DHT22;6486;51.034;5.262;2022-11-20T10:07:00;6.80;79.30
12839;DHT22;6486;51.034;5.262;2022-11-20T10:09:37;6.80;79.20
12839;DHT22;6486;51.034;5.262;2022-11-20T10:15:12;6.90;79.40
12839;DHT22;6486;51.034;5.262;2022-11-20T10:20:24;6.90;79.40
12839;DHT22;6486;51.034;5.262;2022-11-20T10:31:06;7.00;79.70
12839;DHT22;6486;51.034;5.262;2022-11-20T10:33:36;7.00;79.80
12839;DHT22;6486;51.034;5.262;2022-11-20T10:38:56;7.10;79.80
12839;DHT22;6486;51.034;5.262;2022-11-20T10:41:28;7.10;79.70
12839;DHT22;6486;51.034;5.262;2022-11-20T10:44:09;7.20;79.80
12839;DHT22;6486;51.034;5.262;2022-11-20T10:46:45;7.20;79.80
12839;DHT22;6486;51.034;5.262;2022-11-20T10:49:20;7.20;79.80
12839;DHT22;6486;51.034;5.262;2022-11-20T10:54:38;7.30;79.90
12839;DHT22;6486;51.034;5.262;2022-11-20T11:00:06;7.30;80.60
12839;DHT22;6486;51.034;5.262;2022-11-20T11:02:53;7.30;80.00
12839;DHT22;6486;51.034;5.262;2022-11-20T11:07:55;7.30;80.10
12839;DHT22;6486;51.034;5.262;2022-11-20T11:12:56;7.40;80.20
12839;DHT22;6486;51.034;5.262;2022-11-20T11:15:35;7.50;80.30
12839;DHT22;6486;51.034;5.262;2022-11-20T11:18:02;7.50;80.30
12839;DHT22;6486;51.034;5.262;2022-11-20T11:20:28;7.50;80.30
12839;DHT22;6486;51.034;5.262;2022-11-20T11:22:56;7.60;80.30
12839;DHT22;6486;51.034;5.262;2022-11-20T11:27:54;7.70;80.30
12839;DHT22;6486;51.034;5.262;2022-11-20T11:30:22;7.70;80.90
12839;DHT22;6486;51.034;5.262;2022-11-20T11:32:48;7.80;80.40
12839;DHT22;6486;51.034;5.262;2022-11-20T11:35:25;7.80;80.30
12839;DHT22;6486;51.034;5.262;2022-11-20T11:37:54;7.90;80.30
12839;DHT22;6486;51.034;5.262;2022-11-20T11:40:28;7.90;80.30
12839;DHT22;6486;51.034;5.262;2022-11-20T11:43:05;7.90;80.30
12839;DHT22;6486;51.034;5.262;2022-11-20T11:45:55;8.00;80.30
12839;DHT22;6486;51.034;5.262;2022-11-20T11:48:21;8.00;80.30
12839;DHT22;6486;51.034;5.262;2022-11-20T11:50:51;8.00;80.30
12839;DHT22;6486;51.034;5.262;2022-11-20T11:53:21;8.10;80.40
12839;DHT22;6486;51.034;5.262;2022-11-20T11:56:08;8.10;80.50
12839;DHT22;6486;51.034;5.262;2022-11-20T11:58:50;8.20;80.60
12839;DHT22;6486;51.034;5.262;2022-11-20T12:06:32;8.30;80.70
12839;DHT22;6486;51.034;5.262;2022-11-20T12:09:03;8.40;80.80
12839;DHT22;6486;51.034;5.262;2022-11-20T12:11:54;8.40;80.80
12839;DHT22;6486;51.034;5.262;2022-11-20T12:14:22;8.50;80.80
12839;DHT22;6486;51.034;5.262;2022-11-20T12:16:52;8.50;80.70
12839;DHT22;6486;51.034;5.262;2022-11-20T12:19:19;8.60;80.80
12839;DHT22;6486;51.034;5.262;2022-11-20T12:25:12;8.70;81.50
12839;DHT22;6486;51.034;5.262;2022-11-20T12:30:15;8.80;80.90
12839;DHT22;6486;51.034;5.262;2022-11-20T12:33:18;8.80;80.90
12839;DHT22;6486;51.034;5.262;2022-11-20T12:36:13;8.80;81.00
12839;DHT22;6486;51.034;5.262;2022-11-20T13:04:47;9.30;81.20
12839;DHT22;6486;51.034;5.262;2022-11-20T13:07:18;9.40;81.20
12839;DHT22;6486;51.034;5.262;2022-11-20T13:09:47;9.40;81.20
12839;DHT22;6486;51.034;5.262;2022-11-20T13:17:41;9.30;81.30
12839;DHT22;6486;51.034;5.262;2022-11-20T13:20:18;9.30;81.40
12839;DHT22;6486;51.034;5.262;2022-11-20T13:22:52;9.30;81.60
12839;DHT22;6486;51.034;5.262;2022-11-20T13:27:55;9.30;81.80
12839;DHT22;6486;51.034;5.262;2022-11-20T13:30:26;9.30;81.90
12839;DHT22;6486;51.034;5.262;2022-11-20T13:32:56;9.20;81.90
12839;DHT22;6486;51.034;5.262;2022-11-20T13:35:35;9.20;82.00
12839;DHT22;6486;51.034;5.262;2022-11-20T13:38:10;9.10;82.10
12839;DHT22;6486;51.034;5.262;2022-11-20T13:40:38;9.10;82.10
12839;DHT22;6486;51.034;5.262;2022-11-20T13:43:33;9.10;82.20
12839;DHT22;6486;51.034;5.262;2022-11-20T13:46:05;9.00;82.20
12839;DHT22;6486;51.034;5.262;2022-11-20T13:48:41;9.00;82.20
12839;DHT22;6486;51.034;5.262;2022-11-20T13:51:34;9.00;82.90
12839;DHT22;6486;51.034;5.262;2022-11-20T14:00:15;8.90;82.60
12839;DHT22;6486;51.034;5.262;2022-11-20T14:02:42;8.90;82.70
12839;DHT22;6486;51.034;5.262;2022-11-20T14:05:22;8.80;82.70
12839;DHT22;6486;51.034;5.262;2022-11-20T14:07:50;8.80;82.80
12839;DHT22;6486;51.034;5.262;2022-11-20T14:10:27;8.80;82.80
12839;DHT22;6486;51.034;5.262;2022-11-20T14:12:53;8.80;82.90
12839;DHT22;6486;51.034;5.262;2022-11-20T14:15:32;8.80;82.90
12839;DHT22;6486;51.034;5.262;2022-11-20T14:17:58;8.80;82.90
12839;DHT22;6486;51.034;5.262;2022-11-20T14:20:29;8.80;83.00
12839;DHT22;6486;51.034;5.262;2022-11-20T14:22:56;8.90;83.10
12839;DHT22;6486;51.034;5.262;2022-11-20T14:25:26;8.80;83.00
12839;DHT22;6486;51.034;5.262;2022-11-20T14:27:59;8.80;83.10
12839;DHT22;6486;51.034;5.262;2022-11-20T14:30:28;8.80;83.10
12839;DHT22;6486;51.034;5.262;2022-11-20T14:32:56;8.80;83.20
12839;DHT22;6486;51.034;5.262;2022-11-20T14:35:28;8.80;83.30
12839;DHT22;6486;51.034;5.262;2022-11-20T14:37:55;8.80;83.30
12839;DHT22;6486;51.034;5.262;2022-11-20T14:40:39;8.80;83.50
12839;DHT22;6486;51.034;5.262;2022-11-20T14:45:54;8.70;83.60
12839;DHT22;6486;51.034;5.262;2022-11-20T14:48:26;8.70;83.70
12839;DHT22;6486;51.034;5.262;2022-11-20T14:50:53;8.70;83.90
12839;DHT22;6486;51.034;5.262;2022-11-20T14:53:24;8.70;83.90
12839;DHT22;6486;51.034;5.262;2022-11-20T14:55:56;8.70;84.10
12839;DHT22;6486;51.034;5.262;2022-11-20T14:58:24;8.70;84.20
12839;DHT22;6486;51.034;5.262;2022-11-20T15:01:12;8.60;84.20
12839;DHT22;6486;51.034;5.262;2022-11-20T15:03:40;8.60;84.40
12839;DHT22;6486;51.034;5.262;2022-11-20T15:06:09;8.60;84.40
12839;DHT22;6486;51.034;5.262;2022-11-20T15:08:35;8.60;84.60
12839;DHT22;6486;51.034;5.262;2022-11-20T15:11:02;8.60;84.70
12839;DHT22;6486;51.034;5.262;2022-11-20T15:13:38;8.60;84.80
12839;DHT22;6486;51.034;5.262;2022-11-20T15:16:15;8.60;84.90
12839;DHT22;6486;51.034;5.262;2022-11-20T15:18:41;8.60;85.00
12839;DHT22;6486;51.034;5.262;2022-11-20T15:21:12;8.50;85.00
12839;DHT22;6486;51.034;5.262;2022-11-20T15:23:38;8.50;85.10
12839;DHT22;6486;51.034;5.262;2022-11-20T15:26:05;8.60;85.90
12839;DHT22;6486;51.034;5.262;2022-11-20T15:28:34;8.50;85.50
12839;DHT22;6486;51.034;5.262;2022-11-20T15:31:01;8.50;85.50
12839;DHT22;6486;51.034;5.262;2022-11-20T15:33:27;8.50;85.70
12839;DHT22;6486;51.034;5.262;2022-11-20T15:35:53;8.50;86.50
12839;DHT22;6486;51.034;5.262;2022-11-20T15:38:19;8.50;86.00
12839;DHT22;6486;51.034;5.262;2022-11-20T15:40:44;8.50;86.00
12839;DHT22;6486;51.034;5.262;2022-11-20T15:43:10;8.50;86.60
12839;DHT22;6486;51.034;5.262;2022-11-20T15:45:38;8.50;86.00
12839;DHT22;6486;51.034;5.262;2022-11-20T15:48:18;8.50;85.90
12839;DHT22;6486;51.034;5.262;2022-11-20T15:53:12;8.60;86.20
12839;DHT22;6486;51.034;5.262;2022-11-20T15:55:38;8.50;86.20
12839;DHT22;6486;51.034;5.262;2022-11-20T15:58:04;8.50;86.30
12839;DHT22;6486;51.034;5.262;2022-11-20T16:00:29;8.60;86.50
12839;DHT22;6486;51.034;5.262;2022-11-20T16:02:55;8.60;86.50
12839;DHT22;6486;51.034;5.262;2022-11-20T16:05:21;8.60;86.60
12839;DHT22;6486;51.034;5.262;2022-11-20T16:07:49;8.60;86.70
12839;DHT22;6486;51.034;5.262;2022-11-20T16:10:15;8.60;86.80
12839;DHT22;6486;51.034;5.262;2022-11-20T16:12:41;8.60;86.80
12839;DHT22;6486;51.034;5.262;2022-11-20T16:15:26;8.60;87.00
12839;DHT22;6486;51.034;5.262;2022-11-20T16:18:11;8.60;87.00
12839;DHT22;6486;51.034;5.262;2022-11-20T16:20:37;8.60;87.10
12839;DHT22;6486;51.034;5.262;2022-11-20T16:23:04;8.60;87.30
12839;DHT22;6486;51.034;5.262;2022-11-20T16:25:29;8.60;87.40
12839;DHT22;6486;51.034;5.262;2022-11-20T16:27:55;8.70;87.60
12839;DHT22;6486;51.034;5.262;2022-11-20T16:30:21;8.70;87.60
12839;DHT22;6486;51.034;5.262;2022-11-20T16:32:47;8.70;87.60
12839;DHT22;6486;51.034;5.262;2022-11-20T16:35:13;8.70;87.60
12839;DHT22;6486;51.034;5.262;2022-11-20T16:37:39;8.70;87.60
12839;DHT22;6486;51.034;5.262;2022-11-20T16:40:05;8.70;87.50
12839;DHT22;6486;51.034;5.262;2022-11-20T16:42:34;8.80;87.70
12839;DHT22;6486;51.034;5.262;2022-11-20T16:45:00;8.80;87.60
12839;DHT22;6486;51.034;5.262;2022-11-20T16:47:26;8.80;87.90
12839;DHT22;6486;51.034;5.262;2022-11-20T16:49:52;8.80;88.30
12839;DHT22;6486;51.034;5.262;2022-11-20T16:52:17;8.80;88.40
12839;DHT22;6486;51.034;5.262;2022-11-20T16:54:43;8.80;88.40
12839;DHT22;6486;51.034;5.262;2022-11-20T16:57:09;8.80;88.50
12839;DHT22;6486;51.034;5.262;2022-11-20T16:59:34;8.90;88.60
12839;DHT22;6486;51.034;5.262;2022-11-20T17:02:00;8.90;88.70
12839;DHT22;6486;51.034;5.262;2022-11-20T17:04:25;8.90;88.70
12839;DHT22;6486;51.034;5.262;2022-11-20T17:06:51;8.90;88.80
12839;DHT22;6486;51.034;5.262;2022-11-20T17:09:17;8.90;89.00
12839;DHT22;6486;51.034;5.262;2022-11-20T17:11:42;8.90;89.00
12839;DHT22;6486;51.034;5.262;2022-11-20T17:14:10;8.90;89.10
12839;DHT22;6486;51.034;5.262;2022-11-20T17:16:36;9.00;89.10
12839;DHT22;6486;51.034;5.262;2022-11-20T17:19:02;9.00;89.00
12839;DHT22;6486;51.034;5.262;2022-11-20T17:21:31;8.90;88.90
12839;DHT22;6486;51.034;5.262;2022-11-20T17:23:59;8.90;88.90
12839;DHT22;6486;51.034;5.262;2022-11-20T17:26:26;8.90;89.80
12839;DHT22;6486;51.034;5.262;2022-11-20T17:29:07;8.90;89.00
12839;DHT22;6486;51.034;5.262;2022-11-20T17:31:35;8.90;89.10
12839;DHT22;6486;51.034;5.262;2022-11-20T17:34:03;8.90;89.20
12839;DHT22;6486;51.034;5.262;2022-11-20T17:36:30;8.90;89.30
12839;DHT22;6486;51.034;5.262;2022-11-20T17:38:56;8.90;89.50
12839;DHT22;6486;51.034;5.262;2022-11-20T17:41:23;8.90;89.40
12839;DHT22;6486;51.034;5.262;2022-11-20T17:43:55;8.90;89.40
12839;DHT22;6486;51.034;5.262;2022-11-20T17:46:24;8.90;89.80
12839;DHT22;6486;51.034;5.262;2022-11-20T17:48:50;8.90;89.10
12839;DHT22;6486;51.034;5.262;2022-11-20T17:51:24;8.90;89.10
12839;DHT22;6486;51.034;5.262;2022-11-20T17:53:52;8.90;89.10
12839;DHT22;6486;51.034;5.262;2022-11-20T17:56:18;8.90;89.10
12839;DHT22;6486;51.034;5.262;2022-11-20T17:59:08;8.90;89.00
12839;DHT22;6486;51.034;5.262;2022-11-20T18:01:34;8.90;89.20